sensor_id;sensor_type;location;lat;lon;timestamp;P1;durP1;ratioP1;P2;durP2;ratioP2
35128;SDS011;21301;43.626;10.580;2023-06-04T00:01:35;14.50;;;8.27;;
35128;SDS011;21301;43.626;10.580;2023-06-04T00:04:00;16.08;;;8.70;;
35128;SDS011;21301;43.626;10.580;2023-06-04T00:06:26;11.75;;;7.15;;
35128;SDS011;21301;43.626;10.580;2023-06-04T00:08:52;8.98;;;5.97;;
35128;SDS011;21301;43.626;10.580;2023-06-04T00:11:18;9.88;;;6.90;;
35128;SDS011;21301;43.626;10.580;2023-06-04T00:13:45;12.52;;;6.57;;
35128;SDS011;21301;43.626;10.580;2023-06-04T00:16:10;10.40;;;6.47;;
35128;SDS011;21301;43.626;10.580;2023-06-04T00:18:36;11.25;;;6.60;;
35128;SDS011;21301;43.626;10.580;2023-06-04T00:21:02;8.77;;;4.90;;
35128;SDS011;21301;43.626;10.580;2023-06-04T00:23:28;9.85;;;5.65;;
35128;SDS011;21301;43.626;10.580;2023-06-04T00:25:54;9.23;;;5.07;;
35128;SDS011;21301;43.626;10.580;2023-06-04T00:28:19;8.52;;;4.75;;
35128;SDS011;21301;43.626;10.580;2023-06-04T00:30:46;8.63;;;5.45;;
35128;SDS011;21301;43.626;10.580;2023-06-04T00:33:12;11.13;;;5.07;;
35128;SDS011;21301;43.626;10.580;2023-06-04T00:35:38;11.18;;;5.80;;
35128;SDS011;21301;43.626;10.580;2023-06-04T00:38:04;8.73;;;5.40;;
35128;SDS011;21301;43.626;10.580;2023-06-04T00:40:29;9.13;;;5.53;;
35128;SDS011;21301;43.626;10.580;2023-06-04T00:42:55;12.20;;;5.47;;
35128;SDS011;21301;43.626;10.580;2023-06-04T00:45:22;11.77;;;6.53;;
35128;SDS011;21301;43.626;10.580;2023-06-04T00:47:51;12.88;;;6.50;;
35128;SDS011;21301;43.626;10.580;2023-06-04T00:50:17;10.65;;;6.60;;
35128;SDS011;21301;43.626;10.580;2023-06-04T00:52:46;10.27;;;6.90;;
35128;SDS011;21301;43.626;10.580;2023-06-04T00:55:13;12.85;;;6.45;;
35128;SDS011;21301;43.626;10.580;2023-06-04T00:57:38;11.38;;;6.72;;
35128;SDS011;21301;43.626;10.580;2023-06-04T01:00:04;11.25;;;6.80;;
35128;SDS011;21301;43.626;10.580;2023-06-04T01:02:32;14.57;;;7.28;;
35128;SDS011;21301;43.626;10.580;2023-06-04T01:10:34;10.52;;;5.50;;
35128;SDS011;21301;43.626;10.580;2023-06-04T01:13:01;9.20;;;5.75;;
35128;SDS011;21301;43.626;10.580;2023-06-04T01:15:27;15.30;;;6.57;;
35128;SDS011;21301;43.626;10.580;2023-06-04T01:17:54;12.77;;;5.63;;
35128;SDS011;21301;43.626;10.580;2023-06-04T01:25:40;9.90;;;6.53;;
35128;SDS011;21301;43.626;10.580;2023-06-04T01:28:10;11.20;;;6.13;;
35128;SDS011;21301;43.626;10.580;2023-06-04T01:30:38;9.27;;;6.05;;
35128;SDS011;21301;43.626;10.580;2023-06-04T01:33:12;9.15;;;5.55;;
35128;SDS011;21301;43.626;10.580;2023-06-04T01:35:39;13.90;;;5.95;;
35128;SDS011;21301;43.626;10.580;2023-06-04T01:38:05;17.85;;;6.75;;
35128;SDS011;21301;43.626;10.580;2023-06-04T01:40:31;12.18;;;6.65;;
35128;SDS011;21301;43.626;10.580;2023-06-04T01:42:57;12.38;;;6.15;;
35128;SDS011;21301;43.626;10.580;2023-06-04T01:45:25;11.30;;;6.00;;
35128;SDS011;21301;43.626;10.580;2023-06-04T01:47:52;8.52;;;5.78;;
35128;SDS011;21301;43.626;10.580;2023-06-04T01:50:19;8.57;;;5.88;;
35128;SDS011;21301;43.626;10.580;2023-06-04T01:52:45;10.02;;;6.05;;
35128;SDS011;21301;43.626;10.580;2023-06-04T01:55:12;10.75;;;6.00;;
35128;SDS011;21301;43.626;10.580;2023-06-04T01:57:39;13.02;;;6.03;;
35128;SDS011;21301;43.626;10.580;2023-06-04T02:00:06;8.70;;;6.20;;
35128;SDS011;21301;43.626;10.580;2023-06-04T02:02:38;13.82;;;6.07;;
35128;SDS011;21301;43.626;10.580;2023-06-04T02:05:07;13.20;;;6.55;;
35128;SDS011;21301;43.626;10.580;2023-06-04T02:07:37;10.00;;;6.97;;
35128;SDS011;21301;43.626;10.580;2023-06-04T02:10:07;9.02;;;6.13;;
35128;SDS011;21301;43.626;10.580;2023-06-04T02:12:38;9.18;;;5.72;;
35128;SDS011;21301;43.626;10.580;2023-06-04T02:15:06;8.90;;;5.70;;
35128;SDS011;21301;43.626;10.580;2023-06-04T02:17:32;14.05;;;6.28;;
35128;SDS011;21301;43.626;10.580;2023-06-04T02:20:02;10.80;;;6.55;;
35128;SDS011;21301;43.626;10.580;2023-06-04T02:22:30;10.40;;;6.60;;
35128;SDS011;21301;43.626;10.580;2023-06-04T02:24:55;15.82;;;6.70;;
35128;SDS011;21301;43.626;10.580;2023-06-04T02:27:21;24.45;;;7.28;;
35128;SDS011;21301;43.626;10.580;2023-06-04T02:29:47;9.65;;;6.55;;
35128;SDS011;21301;43.626;10.580;2023-06-04T02:32:13;10.20;;;6.25;;
35128;SDS011;21301;43.626;10.580;2023-06-04T02:34:38;11.23;;;6.13;;
35128;SDS011;21301;43.626;10.580;2023-06-04T02:37:04;16.95;;;7.80;;
35128;SDS011;21301;43.626;10.580;2023-06-04T02:39:30;12.30;;;7.60;;
35128;SDS011;21301;43.626;10.580;2023-06-04T02:41:56;10.07;;;6.82;;
35128;SDS011;21301;43.626;10.580;2023-06-04T02:44:22;12.00;;;6.63;;
35128;SDS011;21301;43.626;10.580;2023-06-04T02:46:48;10.68;;;6.38;;
35128;SDS011;21301;43.626;10.580;2023-06-04T02:49:13;13.23;;;5.85;;
35128;SDS011;21301;43.626;10.580;2023-06-04T02:51:40;10.75;;;6.10;;
35128;SDS011;21301;43.626;10.580;2023-06-04T02:54:06;15.07;;;7.03;;
35128;SDS011;21301;43.626;10.580;2023-06-04T02:56:32;9.23;;;6.10;;
35128;SDS011;21301;43.626;10.580;2023-06-04T02:58:58;10.30;;;6.75;;
35128;SDS011;21301;43.626;10.580;2023-06-04T03:01:25;12.48;;;6.85;;
35128;SDS011;21301;43.626;10.580;2023-06-04T03:03:52;9.82;;;5.95;;
35128;SDS011;21301;43.626;10.580;2023-06-04T03:06:22;10.93;;;5.88;;
35128;SDS011;21301;43.626;10.580;2023-06-04T03:08:49;10.65;;;6.10;;
35128;SDS011;21301;43.626;10.580;2023-06-04T03:11:16;11.15;;;6.25;;
35128;SDS011;21301;43.626;10.580;2023-06-04T03:13:47;11.90;;;6.93;;
35128;SDS011;21301;43.626;10.580;2023-06-04T03:16:14;12.93;;;6.65;;
35128;SDS011;21301;43.626;10.580;2023-06-04T03:18:40;11.45;;;6.68;;
35128;SDS011;21301;43.626;10.580;2023-06-04T03:21:07;11.80;;;7.22;;
35128;SDS011;21301;43.626;10.580;2023-06-04T03:23:33;9.93;;;5.47;;
35128;SDS011;21301;43.626;10.580;2023-06-04T03:26:03;13.35;;;6.53;;
35128;SDS011;21301;43.626;10.580;2023-06-04T03:28:30;12.55;;;8.63;;
35128;SDS011;21301;43.626;10.580;2023-06-04T03:30:59;15.02;;;7.40;;
35128;SDS011;21301;43.626;10.580;2023-06-04T03:33:26;19.52;;;11.32;;
35128;SDS011;21301;43.626;10.580;2023-06-04T03:35:52;13.95;;;8.27;;
35128;SDS011;21301;43.626;10.580;2023-06-04T03:38:18;12.02;;;8.25;;
35128;SDS011;21301;43.626;10.580;2023-06-04T03:40:46;13.57;;;8.90;;
35128;SDS011;21301;43.626;10.580;2023-06-04T03:43:13;19.08;;;9.50;;
35128;SDS011;21301;43.626;10.580;2023-06-04T03:45:40;13.52;;;6.43;;
35128;SDS011;21301;43.626;10.580;2023-06-04T03:48:07;9.85;;;7.32;;
35128;SDS011;21301;43.626;10.580;2023-06-04T03:50:35;9.98;;;6.68;;
35128;SDS011;21301;43.626;10.580;2023-06-04T03:53:01;13.32;;;7.53;;
35128;SDS011;21301;43.626;10.580;2023-06-04T03:55:31;12.57;;;7.10;;
35128;SDS011;21301;43.626;10.580;2023-06-04T03:58:01;10.57;;;7.18;;
35128;SDS011;21301;43.626;10.580;2023-06-04T04:00:27;12.77;;;7.78;;
35128;SDS011;21301;43.626;10.580;2023-06-04T04:02:57;11.25;;;7.40;;
35128;SDS011;21301;43.626;10.580;2023-06-04T04:05:26;10.13;;;7.38;;
35128;SDS011;21301;43.626;10.580;2023-06-04T04:07:53;14.05;;;7.72;;
35128;SDS011;21301;43.626;10.580;2023-06-04T04:10:23;9.98;;;6.65;;
35128;SDS011;21301;43.626;10.580;2023-06-04T04:12:49;12.27;;;7.38;;
35128;SDS011;21301;43.626;10.580;2023-06-04T04:15:19;12.90;;;7.10;;
35128;SDS011;21301;43.626;10.580;2023-06-04T04:17:44;11.57;;;6.47;;
35128;SDS011;21301;43.626;10.580;2023-06-04T04:20:11;9.20;;;5.55;;
35128;SDS011;21301;43.626;10.580;2023-06-04T04:22:45;9.65;;;5.05;;
35128;SDS011;21301;43.626;10.580;2023-06-04T04:25:12;9.05;;;5.13;;
35128;SDS011;21301;43.626;10.580;2023-06-04T04:27:38;9.98;;;5.55;;
35128;SDS011;21301;43.626;10.580;2023-06-04T04:30:08;12.68;;;5.10;;
35128;SDS011;21301;43.626;10.580;2023-06-04T04:32:35;9.00;;;5.07;;
35128;SDS011;21301;43.626;10.580;2023-06-04T04:35:04;10.23;;;5.82;;
35128;SDS011;21301;43.626;10.580;2023-06-04T04:37:36;9.23;;;5.28;;
35128;SDS011;21301;43.626;10.580;2023-06-04T04:40:06;8.93;;;5.78;;
35128;SDS011;21301;43.626;10.580;2023-06-04T04:42:37;8.00;;;4.63;;
35128;SDS011;21301;43.626;10.580;2023-06-04T04:45:05;8.68;;;5.38;;
35128;SDS011;21301;43.626;10.580;2023-06-04T04:47:31;10.07;;;5.43;;
35128;SDS011;21301;43.626;10.580;2023-06-04T04:49:57;8.32;;;5.72;;
35128;SDS011;21301;43.626;10.580;2023-06-04T04:52:24;10.88;;;5.35;;
35128;SDS011;21301;43.626;10.580;2023-06-04T04:54:50;10.75;;;5.70;;
35128;SDS011;21301;43.626;10.580;2023-06-04T04:57:21;10.82;;;5.70;;
35128;SDS011;21301;43.626;10.580;2023-06-04T04:59:50;7.85;;;5.57;;
35128;SDS011;21301;43.626;10.580;2023-06-04T05:02:16;9.35;;;6.05;;
35128;SDS011;21301;43.626;10.580;2023-06-04T05:04:41;9.57;;;5.65;;
35128;SDS011;21301;43.626;10.580;2023-06-04T05:07:08;8.98;;;5.28;;
35128;SDS011;21301;43.626;10.580;2023-06-04T05:09:34;9.23;;;4.75;;
35128;SDS011;21301;43.626;10.580;2023-06-04T05:12:01;8.05;;;5.35;;
35128;SDS011;21301;43.626;10.580;2023-06-04T05:14:27;7.82;;;5.45;;
35128;SDS011;21301;43.626;10.580;2023-06-04T05:16:54;8.00;;;5.10;;
35128;SDS011;21301;43.626;10.580;2023-06-04T05:19:23;8.23;;;5.47;;
35128;SDS011;21301;43.626;10.580;2023-06-04T05:21:50;8.38;;;4.82;;
35128;SDS011;21301;43.626;10.580;2023-06-04T05:24:16;8.00;;;4.90;;
35128;SDS011;21301;43.626;10.580;2023-06-04T05:26:42;8.88;;;4.68;;
35128;SDS011;21301;43.626;10.580;2023-06-04T05:29:14;7.32;;;4.15;;
35128;SDS011;21301;43.626;10.580;2023-06-04T05:31:42;8.85;;;4.57;;
35128;SDS011;21301;43.626;10.580;2023-06-04T05:34:11;7.35;;;4.60;;
35128;SDS011;21301;43.626;10.580;2023-06-04T05:36:41;8.13;;;4.35;;
35128;SDS011;21301;43.626;10.580;2023-06-04T05:39:09;6.70;;;4.75;;
35128;SDS011;21301;43.626;10.580;2023-06-04T05:42:05;7.63;;;4.82;;
35128;SDS011;21301;43.626;10.580;2023-06-04T05:44:31;10.93;;;4.82;;
35128;SDS011;21301;43.626;10.580;2023-06-04T05:46:59;9.95;;;4.88;;
35128;SDS011;21301;43.626;10.580;2023-06-04T05:49:25;9.90;;;5.00;;
35128;SDS011;21301;43.626;10.580;2023-06-04T05:51:53;9.02;;;5.13;;
35128;SDS011;21301;43.626;10.580;2023-06-04T05:54:20;8.77;;;5.20;;
35128;SDS011;21301;43.626;10.580;2023-06-04T05:56:47;7.65;;;4.30;;
35128;SDS011;21301;43.626;10.580;2023-06-04T05:59:13;7.35;;;4.72;;
35128;SDS011;21301;43.626;10.580;2023-06-04T06:01:39;8.68;;;5.85;;
35128;SDS011;21301;43.626;10.580;2023-06-04T06:04:05;8.60;;;5.53;;
35128;SDS011;21301;43.626;10.580;2023-06-04T06:06:31;8.80;;;4.95;;
35128;SDS011;21301;43.626;10.580;2023-06-04T06:08:57;8.57;;;5.22;;
35128;SDS011;21301;43.626;10.580;2023-06-04T06:11:23;10.50;;;5.03;;
35128;SDS011;21301;43.626;10.580;2023-06-04T06:13:52;7.75;;;5.07;;
35128;SDS011;21301;43.626;10.580;2023-06-04T06:16:18;7.60;;;5.07;;
35128;SDS011;21301;43.626;10.580;2023-06-04T06:18:44;7.85;;;5.43;;
35128;SDS011;21301;43.626;10.580;2023-06-04T06:21:10;6.93;;;4.72;;
35128;SDS011;21301;43.626;10.580;2023-06-04T06:23:37;8.43;;;6.40;;
35128;SDS011;21301;43.626;10.580;2023-06-04T06:26:04;11.68;;;5.32;;
35128;SDS011;21301;43.626;10.580;2023-06-04T06:28:37;9.57;;;5.05;;
35128;SDS011;21301;43.626;10.580;2023-06-04T06:31:03;6.95;;;4.95;;
35128;SDS011;21301;43.626;10.580;2023-06-04T06:33:29;9.68;;;6.00;;
35128;SDS011;21301;43.626;10.580;2023-06-04T06:35:56;6.72;;;4.63;;
35128;SDS011;21301;43.626;10.580;2023-06-04T06:38:25;8.02;;;5.15;;
35128;SDS011;21301;43.626;10.580;2023-06-04T06:40:52;6.47;;;4.75;;
35128;SDS011;21301;43.626;10.580;2023-06-04T06:43:18;7.22;;;4.53;;
35128;SDS011;21301;43.626;10.580;2023-06-04T06:45:44;7.82;;;4.95;;
35128;SDS011;21301;43.626;10.580;2023-06-04T06:48:10;6.95;;;5.00;;
35128;SDS011;21301;43.626;10.580;2023-06-04T06:50:36;7.45;;;4.28;;
35128;SDS011;21301;43.626;10.580;2023-06-04T06:53:02;8.38;;;4.80;;
35128;SDS011;21301;43.626;10.580;2023-06-04T06:55:28;7.10;;;5.25;;
35128;SDS011;21301;43.626;10.580;2023-06-04T06:57:54;8.93;;;4.57;;
35128;SDS011;21301;43.626;10.580;2023-06-04T07:00:20;21.15;;;4.63;;
35128;SDS011;21301;43.626;10.580;2023-06-04T07:02:46;7.00;;;4.40;;
35128;SDS011;21301;43.626;10.580;2023-06-04T07:05:11;6.20;;;4.47;;
35128;SDS011;21301;43.626;10.580;2023-06-04T07:07:40;10.15;;;5.05;;
35128;SDS011;21301;43.626;10.580;2023-06-04T07:10:06;7.45;;;4.63;;
35128;SDS011;21301;43.626;10.580;2023-06-04T07:12:32;7.15;;;5.00;;
35128;SDS011;21301;43.626;10.580;2023-06-04T07:14:58;7.57;;;4.93;;
35128;SDS011;21301;43.626;10.580;2023-06-04T07:17:24;6.53;;;4.55;;
35128;SDS011;21301;43.626;10.580;2023-06-04T07:19:50;10.40;;;4.75;;
35128;SDS011;21301;43.626;10.580;2023-06-04T07:22:16;7.50;;;4.47;;
35128;SDS011;21301;43.626;10.580;2023-06-04T07:24:42;10.70;;;4.45;;
35128;SDS011;21301;43.626;10.580;2023-06-04T07:27:11;8.07;;;4.10;;
35128;SDS011;21301;43.626;10.580;2023-06-04T07:29:38;6.43;;;4.15;;
35128;SDS011;21301;43.626;10.580;2023-06-04T07:32:04;8.52;;;4.35;;
35128;SDS011;21301;43.626;10.580;2023-06-04T07:34:31;7.32;;;4.38;;
35128;SDS011;21301;43.626;10.580;2023-06-04T07:36:57;7.53;;;4.47;;
35128;SDS011;21301;43.626;10.580;2023-06-04T07:39:23;7.50;;;5.13;;
35128;SDS011;21301;43.626;10.580;2023-06-04T07:41:48;11.90;;;4.35;;
35128;SDS011;21301;43.626;10.580;2023-06-04T07:44:14;8.60;;;4.95;;
35128;SDS011;21301;43.626;10.580;2023-06-04T07:46:41;10.27;;;5.15;;
35128;SDS011;21301;43.626;10.580;2023-06-04T07:49:07;12.60;;;5.13;;
35128;SDS011;21301;43.626;10.580;2023-06-04T07:51:34;5.75;;;3.85;;
35128;SDS011;21301;43.626;10.580;2023-06-04T07:54:00;10.35;;;5.53;;
35128;SDS011;21301;43.626;10.580;2023-06-04T07:56:27;8.65;;;4.95;;
35128;SDS011;21301;43.626;10.580;2023-06-04T07:58:53;6.30;;;4.13;;
35128;SDS011;21301;43.626;10.580;2023-06-04T08:01:18;6.65;;;3.70;;
35128;SDS011;21301;43.626;10.580;2023-06-04T08:03:44;7.57;;;4.50;;
35128;SDS011;21301;43.626;10.580;2023-06-04T08:06:10;7.47;;;4.47;;
35128;SDS011;21301;43.626;10.580;2023-06-04T08:08:43;9.68;;;4.43;;
35128;SDS011;21301;43.626;10.580;2023-06-04T08:11:14;6.40;;;4.13;;
35128;SDS011;21301;43.626;10.580;2023-06-04T08:13:40;6.88;;;4.03;;
35128;SDS011;21301;43.626;10.580;2023-06-04T08:16:07;7.75;;;4.13;;
35128;SDS011;21301;43.626;10.580;2023-06-04T08:18:37;7.15;;;3.90;;
35128;SDS011;21301;43.626;10.580;2023-06-04T08:21:04;7.35;;;4.32;;
35128;SDS011;21301;43.626;10.580;2023-06-04T08:23:31;7.25;;;4.15;;
35128;SDS011;21301;43.626;10.580;2023-06-04T08:25:57;6.60;;;3.97;;
35128;SDS011;21301;43.626;10.580;2023-06-04T08:28:24;7.38;;;4.70;;
35128;SDS011;21301;43.626;10.580;2023-06-04T08:30:50;7.90;;;4.28;;
35128;SDS011;21301;43.626;10.580;2023-06-04T08:33:16;7.35;;;4.18;;
35128;SDS011;21301;43.626;10.580;2023-06-04T08:35:42;5.95;;;3.72;;
35128;SDS011;21301;43.626;10.580;2023-06-04T08:38:07;8.00;;;3.88;;
35128;SDS011;21301;43.626;10.580;2023-06-04T08:40:33;6.80;;;4.15;;
35128;SDS011;21301;43.626;10.580;2023-06-04T08:43:00;6.30;;;4.15;;
35128;SDS011;21301;43.626;10.580;2023-06-04T08:45:26;7.72;;;4.30;;
35128;SDS011;21301;43.626;10.580;2023-06-04T08:47:52;7.32;;;3.72;;
35128;SDS011;21301;43.626;10.580;2023-06-04T08:50:23;6.38;;;4.25;;
35128;SDS011;21301;43.626;10.580;2023-06-04T08:52:54;8.15;;;4.40;;
35128;SDS011;21301;43.626;10.580;2023-06-04T08:55:21;9.23;;;3.83;;
35128;SDS011;21301;43.626;10.580;2023-06-04T08:57:50;6.65;;;3.40;;
35128;SDS011;21301;43.626;10.580;2023-06-04T09:00:17;6.10;;;4.10;;
35128;SDS011;21301;43.626;10.580;2023-06-04T09:02:43;6.78;;;3.50;;
35128;SDS011;21301;43.626;10.580;2023-06-04T09:05:11;8.27;;;3.95;;
35128;SDS011;21301;43.626;10.580;2023-06-04T09:07:44;8.40;;;4.43;;
35128;SDS011;21301;43.626;10.580;2023-06-04T09:10:12;6.28;;;4.10;;
35128;SDS011;21301;43.626;10.580;2023-06-04T09:12:43;7.32;;;3.63;;
35128;SDS011;21301;43.626;10.580;2023-06-04T09:15:12;6.90;;;3.53;;
35128;SDS011;21301;43.626;10.580;2023-06-04T09:17:38;7.15;;;4.07;;
35128;SDS011;21301;43.626;10.580;2023-06-04T09:20:04;6.88;;;3.92;;
35128;SDS011;21301;43.626;10.580;2023-06-04T09:22:36;6.00;;;3.53;;
35128;SDS011;21301;43.626;10.580;2023-06-04T09:25:06;5.57;;;3.70;;
35128;SDS011;21301;43.626;10.580;2023-06-04T09:27:43;8.25;;;3.60;;
35128;SDS011;21301;43.626;10.580;2023-06-04T09:30:09;6.75;;;4.07;;
35128;SDS011;21301;43.626;10.580;2023-06-04T09:32:35;6.78;;;4.70;;
35128;SDS011;21301;43.626;10.580;2023-06-04T09:35:34;6.90;;;4.10;;
35128;SDS011;21301;43.626;10.580;2023-06-04T09:37:54;8.88;;;3.70;;
35128;SDS011;21301;43.626;10.580;2023-06-04T09:40:21;5.85;;;3.50;;
35128;SDS011;21301;43.626;10.580;2023-06-04T09:42:47;8.10;;;3.95;;
35128;SDS011;21301;43.626;10.580;2023-06-04T09:45:34;7.37;;;4.20;;
35128;SDS011;21301;43.626;10.580;2023-06-04T09:48:01;8.40;;;3.90;;
35128;SDS011;21301;43.626;10.580;2023-06-04T09:50:29;8.10;;;4.03;;
35128;SDS011;21301;43.626;10.580;2023-06-04T09:52:59;13.52;;;4.28;;
35128;SDS011;21301;43.626;10.580;2023-06-04T09:55:27;6.70;;;3.67;;
35128;SDS011;21301;43.626;10.580;2023-06-04T09:57:53;8.23;;;3.90;;
35128;SDS011;21301;43.626;10.580;2023-06-04T10:00:20;16.77;;;5.03;;
35128;SDS011;21301;43.626;10.580;2023-06-04T10:02:48;8.43;;;4.40;;
35128;SDS011;21301;43.626;10.580;2023-06-04T10:05:15;7.05;;;4.03;;
35128;SDS011;21301;43.626;10.580;2023-06-04T10:07:44;9.60;;;4.50;;
35128;SDS011;21301;43.626;10.580;2023-06-04T10:10:14;7.65;;;4.43;;
35128;SDS011;21301;43.626;10.580;2023-06-04T10:12:42;8.45;;;4.63;;
35128;SDS011;21301;43.626;10.580;2023-06-04T10:15:12;6.30;;;3.90;;
35128;SDS011;21301;43.626;10.580;2023-06-04T10:17:39;6.30;;;4.03;;
35128;SDS011;21301;43.626;10.580;2023-06-04T10:20:06;7.45;;;4.50;;
35128;SDS011;21301;43.626;10.580;2023-06-04T10:22:34;5.88;;;4.13;;
35128;SDS011;21301;43.626;10.580;2023-06-04T10:25:00;6.80;;;4.07;;
35128;SDS011;21301;43.626;10.580;2023-06-04T10:27:29;5.63;;;3.88;;
35128;SDS011;21301;43.626;10.580;2023-06-04T10:29:57;7.65;;;4.20;;
35128;SDS011;21301;43.626;10.580;2023-06-04T10:32:26;7.75;;;4.13;;
35128;SDS011;21301;43.626;10.580;2023-06-04T10:34:53;7.60;;;5.00;;
35128;SDS011;21301;43.626;10.580;2023-06-04T10:37:20;6.53;;;4.00;;
35128;SDS011;21301;43.626;10.580;2023-06-04T10:39:52;6.53;;;4.22;;
35128;SDS011;21301;43.626;10.580;2023-06-04T10:42:20;8.13;;;3.85;;
35128;SDS011;21301;43.626;10.580;2023-06-04T10:44:47;8.00;;;3.80;;
35128;SDS011;21301;43.626;10.580;2023-06-04T10:47:18;6.63;;;4.32;;
35128;SDS011;21301;43.626;10.580;2023-06-04T10:49:49;11.43;;;4.60;;
35128;SDS011;21301;43.626;10.580;2023-06-04T10:52:16;6.47;;;4.40;;
35128;SDS011;21301;43.626;10.580;2023-06-04T10:54:42;7.30;;;3.97;;
35128;SDS011;21301;43.626;10.580;2023-06-04T10:57:13;6.78;;;4.68;;
35128;SDS011;21301;43.626;10.580;2023-06-04T10:59:40;7.20;;;3.95;;
35128;SDS011;21301;43.626;10.580;2023-06-04T11:02:07;9.65;;;4.47;;
35128;SDS011;21301;43.626;10.580;2023-06-04T11:04:33;7.20;;;4.07;;
35128;SDS011;21301;43.626;10.580;2023-06-04T11:07:06;7.22;;;3.88;;
35128;SDS011;21301;43.626;10.580;2023-06-04T11:09:35;6.03;;;3.92;;
35128;SDS011;21301;43.626;10.580;2023-06-04T11:12:04;7.00;;;3.95;;
35128;SDS011;21301;43.626;10.580;2023-06-04T11:14:31;6.55;;;4.03;;
35128;SDS011;21301;43.626;10.580;2023-06-04T11:16:57;6.68;;;4.00;;
35128;SDS011;21301;43.626;10.580;2023-06-04T11:19:22;7.15;;;4.60;;
35128;SDS011;21301;43.626;10.580;2023-06-04T11:21:48;10.95;;;4.07;;
35128;SDS011;21301;43.626;10.580;2023-06-04T11:24:16;9.18;;;5.00;;
35128;SDS011;21301;43.626;10.580;2023-06-04T11:26:42;6.53;;;3.88;;
35128;SDS011;21301;43.626;10.580;2023-06-04T11:29:11;8.40;;;4.00;;
35128;SDS011;21301;43.626;10.580;2023-06-04T11:31:40;8.63;;;4.53;;
35128;SDS011;21301;43.626;10.580;2023-06-04T11:34:10;6.75;;;4.30;;
35128;SDS011;21301;43.626;10.580;2023-06-04T11:36:47;8.10;;;4.57;;
35128;SDS011;21301;43.626;10.580;2023-06-04T11:39:14;6.30;;;4.60;;
35128;SDS011;21301;43.626;10.580;2023-06-04T11:41:41;7.43;;;4.32;;
35128;SDS011;21301;43.626;10.580;2023-06-04T11:44:07;9.30;;;4.55;;
35128;SDS011;21301;43.626;10.580;2023-06-04T11:46:40;10.80;;;5.38;;
35128;SDS011;21301;43.626;10.580;2023-06-04T11:49:11;6.10;;;4.32;;
35128;SDS011;21301;43.626;10.580;2023-06-04T11:51:38;8.43;;;4.30;;
35128;SDS011;21301;43.626;10.580;2023-06-04T11:54:04;7.68;;;4.28;;
35128;SDS011;21301;43.626;10.580;2023-06-04T11:56:30;8.10;;;4.43;;
35128;SDS011;21301;43.626;10.580;2023-06-04T11:58:55;5.90;;;3.92;;
35128;SDS011;21301;43.626;10.580;2023-06-04T12:01:21;5.70;;;3.97;;
35128;SDS011;21301;43.626;10.580;2023-06-04T12:03:48;10.35;;;5.15;;
35128;SDS011;21301;43.626;10.580;2023-06-04T12:06:15;7.38;;;3.83;;
35128;SDS011;21301;43.626;10.580;2023-06-04T12:08:49;8.43;;;5.20;;
35128;SDS011;21301;43.626;10.580;2023-06-04T12:11:36;8.95;;;5.10;;
35128;SDS011;21301;43.626;10.580;2023-06-04T12:14:06;7.43;;;4.80;;
35128;SDS011;21301;43.626;10.580;2023-06-04T12:16:32;12.35;;;5.10;;
35128;SDS011;21301;43.626;10.580;2023-06-04T12:19:05;9.95;;;5.18;;
35128;SDS011;21301;43.626;10.580;2023-06-04T12:21:32;9.40;;;4.72;;
35128;SDS011;21301;43.626;10.580;2023-06-04T12:26:33;6.93;;;4.47;;
35128;SDS011;21301;43.626;10.580;2023-06-04T12:29:15;7.82;;;4.53;;
35128;SDS011;21301;43.626;10.580;2023-06-04T12:31:44;6.97;;;4.90;;
35128;SDS011;21301;43.626;10.580;2023-06-04T12:34:12;7.15;;;5.22;;
35128;SDS011;21301;43.626;10.580;2023-06-04T12:36:38;7.47;;;4.90;;
35128;SDS011;21301;43.626;10.580;2023-06-04T12:39:04;6.43;;;4.50;;
35128;SDS011;21301;43.626;10.580;2023-06-04T12:41:32;11.18;;;4.75;;
35128;SDS011;21301;43.626;10.580;2023-06-04T12:43:59;8.45;;;4.85;;
35128;SDS011;21301;43.626;10.580;2023-06-04T12:46:25;7.45;;;4.88;;
35128;SDS011;21301;43.626;10.580;2023-06-04T12:48:52;8.52;;;5.15;;
35128;SDS011;21301;43.626;10.580;2023-06-04T12:51:18;9.13;;;4.95;;
35128;SDS011;21301;43.626;10.580;2023-06-04T12:53:46;6.50;;;4.80;;
35128;SDS011;21301;43.626;10.580;2023-06-04T12:56:12;7.40;;;4.68;;
35128;SDS011;21301;43.626;10.580;2023-06-04T12:58:39;10.73;;;4.82;;
35128;SDS011;21301;43.626;10.580;2023-06-04T13:01:05;8.45;;;4.68;;
35128;SDS011;21301;43.626;10.580;2023-06-04T13:03:31;8.32;;;5.20;;
35128;SDS011;21301;43.626;10.580;2023-06-04T13:05:57;6.85;;;3.83;;
35128;SDS011;21301;43.626;10.580;2023-06-04T13:08:23;9.93;;;4.82;;
35128;SDS011;21301;43.626;10.580;2023-06-04T13:10:50;9.60;;;4.47;;
35128;SDS011;21301;43.626;10.580;2023-06-04T13:13:17;7.10;;;3.50;;
35128;SDS011;21301;43.626;10.580;2023-06-04T13:15:43;5.53;;;2.58;;
35128;SDS011;21301;43.626;10.580;2023-06-04T13:18:10;6.72;;;2.90;;
35128;SDS011;21301;43.626;10.580;2023-06-04T13:20:36;6.05;;;3.22;;
35128;SDS011;21301;43.626;10.580;2023-06-04T13:23:03;14.43;;;7.55;;
35128;SDS011;21301;43.626;10.580;2023-06-04T13:25:29;13.80;;;8.45;;
35128;SDS011;21301;43.626;10.580;2023-06-04T13:27:57;11.15;;;5.97;;
35128;SDS011;21301;43.626;10.580;2023-06-04T13:30:34;12.00;;;5.18;;
35128;SDS011;21301;43.626;10.580;2023-06-04T13:33:02;13.20;;;5.13;;
35128;SDS011;21301;43.626;10.580;2023-06-04T13:35:28;14.90;;;8.13;;
35128;SDS011;21301;43.626;10.580;2023-06-04T13:37:55;7.18;;;4.18;;
35128;SDS011;21301;43.626;10.580;2023-06-04T13:40:22;8.82;;;3.38;;
35128;SDS011;21301;43.626;10.580;2023-06-04T13:42:48;6.38;;;3.85;;
35128;SDS011;21301;43.626;10.580;2023-06-04T13:45:14;8.13;;;4.18;;
35128;SDS011;21301;43.626;10.580;2023-06-04T13:47:42;7.93;;;4.55;;
35128;SDS011;21301;43.626;10.580;2023-06-04T13:50:08;9.15;;;3.90;;
35128;SDS011;21301;43.626;10.580;2023-06-04T13:52:34;9.60;;;3.53;;
35128;SDS011;21301;43.626;10.580;2023-06-04T13:55:00;10.02;;;3.33;;
35128;SDS011;21301;43.626;10.580;2023-06-04T13:57:27;7.20;;;2.97;;
35128;SDS011;21301;43.626;10.580;2023-06-04T13:59:53;6.95;;;2.90;;
35128;SDS011;21301;43.626;10.580;2023-06-04T14:02:19;7.05;;;2.80;;
35128;SDS011;21301;43.626;10.580;2023-06-04T14:04:46;5.65;;;2.97;;
35128;SDS011;21301;43.626;10.580;2023-06-04T14:07:11;9.10;;;3.30;;
35128;SDS011;21301;43.626;10.580;2023-06-04T14:09:37;5.13;;;2.90;;
35128;SDS011;21301;43.626;10.580;2023-06-04T14:12:03;6.53;;;2.63;;
35128;SDS011;21301;43.626;10.580;2023-06-04T14:14:29;8.00;;;4.18;;
35128;SDS011;21301;43.626;10.580;2023-06-04T14:17:01;9.85;;;6.20;;
35128;SDS011;21301;43.626;10.580;2023-06-04T14:19:27;11.18;;;4.55;;
35128;SDS011;21301;43.626;10.580;2023-06-04T14:21:53;7.93;;;3.42;;
35128;SDS011;21301;43.626;10.580;2023-06-04T14:24:19;6.65;;;3.30;;
35128;SDS011;21301;43.626;10.580;2023-06-04T14:26:45;6.68;;;3.53;;
35128;SDS011;21301;43.626;10.580;2023-06-04T14:29:12;9.13;;;4.63;;
35128;SDS011;21301;43.626;10.580;2023-06-04T14:31:38;5.55;;;3.38;;
35128;SDS011;21301;43.626;10.580;2023-06-04T14:34:04;6.25;;;3.78;;
35128;SDS011;21301;43.626;10.580;2023-06-04T14:36:34;6.63;;;3.25;;
35128;SDS011;21301;43.626;10.580;2023-06-04T14:39:00;8.90;;;3.22;;
35128;SDS011;21301;43.626;10.580;2023-06-04T14:41:26;7.57;;;3.63;;
35128;SDS011;21301;43.626;10.580;2023-06-04T14:43:52;6.95;;;3.58;;
35128;SDS011;21301;43.626;10.580;2023-06-04T14:46:18;5.50;;;3.10;;